Braggs, Oklahoma
Current Conditions -  °F | °C
As of 5:21 AM on Thursday 18 Dec 2014 (Local Time) from KMKO Reporting Station
Haze Haze  
Wind Chill: 31°   Ceiling: 500
Heat Index: 36°   Visibility: 5mi
Dew Point: 34°   Wind: 6mph
Humidity: 93%   Direction: 150°SSE
Pressure: 30.18"   Gusts: NA
Location:  35.66°N, 95.2°W
Report Text: KMKO 181121Z AUTO 15005KT 5SM BR OVC005 02/01 A3018 RMK AO2 T00220011
Loading
Personal Weather Stations






























Interactive Weather Map New forecast layout! Learn more

10-Day Weather Forecast

Advertisements
Track Severe Weather on mobile